sensor_id;sensor_type;location;lat;lon;timestamp;pressure;altitude;pressure_sealevel;temperature;humidity
49342;BME280;35210;41.606;-87.602;2022-12-18T00:01:29;99152.38;;;-1.86;73.31
49342;BME280;35210;41.606;-87.602;2022-12-18T00:04:00;99157.47;;;-1.83;72.74
49342;BME280;35210;41.606;-87.602;2022-12-18T00:06:29;99168.91;;;-1.90;71.00
49342;BME280;35210;41.606;-87.602;2022-12-18T00:08:59;99176.13;;;-2.02;70.16
49342;BME280;35210;41.606;-87.602;2022-12-18T00:11:29;99169.44;;;-2.09;70.75
49342;BME280;35210;41.606;-87.602;2022-12-18T00:13:58;99181.59;;;-2.11;71.14
49342;BME280;35210;41.606;-87.602;2022-12-18T00:16:30;99184.31;;;-2.15;71.47
49342;BME280;35210;41.606;-87.602;2022-12-18T00:19:01;99190.28;;;-2.13;71.63
49342;BME280;35210;41.606;-87.602;2022-12-18T00:21:30;99198.13;;;-2.16;71.19
49342;BME280;35210;41.606;-87.602;2022-12-18T00:23:59;99194.47;;;-2.09;71.99
49342;BME280;35210;41.606;-87.602;2022-12-18T00:26:29;99196.25;;;-2.11;71.31
49342;BME280;35210;41.606;-87.602;2022-12-18T00:28:59;99197.97;;;-2.10;72.27
49342;BME280;35210;41.606;-87.602;2022-12-18T00:31:29;99198.63;;;-2.04;71.85
49342;BME280;35210;41.606;-87.602;2022-12-18T00:33:57;99193.63;;;-2.10;70.70
49342;BME280;35210;41.606;-87.602;2022-12-18T00:36:27;99201.47;;;-2.13;71.25
49342;BME280;35210;41.606;-87.602;2022-12-18T00:38:56;99211.88;;;-2.14;70.51
49342;BME280;35210;41.606;-87.602;2022-12-18T00:41:25;99217.00;;;-2.13;70.10
49342;BME280;35210;41.606;-87.602;2022-12-18T00:44:11;99206.69;;;-2.14;69.84
49342;BME280;35210;41.606;-87.602;2022-12-18T00:46:43;99210.94;;;-2.12;69.49
49342;BME280;35210;41.606;-87.602;2022-12-18T00:49:11;99213.78;;;-2.21;69.42
49342;BME280;35210;41.606;-87.602;2022-12-18T00:51:40;99212.09;;;-2.22;69.70
49342;BME280;35210;41.606;-87.602;2022-12-18T00:54:09;99203.44;;;-2.21;70.13
49342;BME280;35210;41.606;-87.602;2022-12-18T00:56:38;99205.25;;;-2.23;70.14
49342;BME280;35210;41.606;-87.602;2022-12-18T00:59:07;99207.84;;;-2.23;71.09
49342;BME280;35210;41.606;-87.602;2022-12-18T01:01:36;99206.31;;;-2.30;70.36
49342;BME280;35210;41.606;-87.602;2022-12-18T01:04:07;99214.81;;;-2.25;70.96
49342;BME280;35210;41.606;-87.602;2022-12-18T01:06:36;99205.47;;;-2.30;71.30
49342;BME280;35210;41.606;-87.602;2022-12-18T01:09:04;99213.38;;;-2.35;71.03
49342;BME280;35210;41.606;-87.602;2022-12-18T01:11:33;99217.69;;;-2.36;71.46
49342;BME280;35210;41.606;-87.602;2022-12-18T01:14:01;99216.63;;;-2.28;71.30
49342;BME280;35210;41.606;-87.602;2022-12-18T01:16:29;99220.94;;;-2.29;71.53
49342;BME280;35210;41.606;-87.602;2022-12-18T01:18:58;99215.00;;;-2.33;72.18
49342;BME280;35210;41.606;-87.602;2022-12-18T01:21:28;99219.63;;;-2.44;71.67
49342;BME280;35210;41.606;-87.602;2022-12-18T01:23:57;99213.41;;;-2.37;72.19
49342;BME280;35210;41.606;-87.602;2022-12-18T01:26:25;99220.16;;;-2.31;73.10
49342;BME280;35210;41.606;-87.602;2022-12-18T01:28:56;99224.19;;;-2.22;72.44
49342;BME280;35210;41.606;-87.602;2022-12-18T01:31:25;99225.03;;;-2.22;72.51
49342;BME280;35210;41.606;-87.602;2022-12-18T01:33:55;99237.06;;;-2.21;72.74
49342;BME280;35210;41.606;-87.602;2022-12-18T01:36:25;99223.28;;;-2.21;73.38
49342;BME280;35210;41.606;-87.602;2022-12-18T01:38:58;99232.19;;;-2.30;73.41
49342;BME280;35210;41.606;-87.602;2022-12-18T01:41:28;99230.41;;;-2.28;73.79
49342;BME280;35210;41.606;-87.602;2022-12-18T01:44:56;99239.22;;;-2.35;72.63
49342;BME280;35210;41.606;-87.602;2022-12-18T01:47:29;99234.13;;;-2.38;73.15
49342;BME280;35210;41.606;-87.602;2022-12-18T01:50:00;99238.72;;;-2.48;73.23
49342;BME280;35210;41.606;-87.602;2022-12-18T01:52:31;99246.47;;;-2.48;73.66
49342;BME280;35210;41.606;-87.602;2022-12-18T01:55:03;99246.47;;;-2.48;74.00
49342;BME280;35210;41.606;-87.602;2022-12-18T01:57:32;99238.63;;;-2.45;74.15
49342;BME280;35210;41.606;-87.602;2022-12-18T02:00:04;99246.16;;;-2.37;74.02
49342;BME280;35210;41.606;-87.602;2022-12-18T02:02:33;99244.47;;;-2.38;72.76
49342;BME280;35210;41.606;-87.602;2022-12-18T02:05:02;99250.41;;;-2.35;73.09
49342;BME280;35210;41.606;-87.602;2022-12-18T02:07:37;99250.66;;;-2.44;72.96
49342;BME280;35210;41.606;-87.602;2022-12-18T02:10:15;99252.38;;;-2.43;73.15
49342;BME280;35210;41.606;-87.602;2022-12-18T02:12:53;99256.53;;;-2.37;72.69
49342;BME280;35210;41.606;-87.602;2022-12-18T02:15:29;99250.06;;;-2.53;73.44
49342;BME280;35210;41.606;-87.602;2022-12-18T02:18:07;99264.66;;;-2.51;73.10
49342;BME280;35210;41.606;-87.602;2022-12-18T02:20:40;99258.47;;;-2.45;73.05
49342;BME280;35210;41.606;-87.602;2022-12-18T02:23:22;99252.44;;;-2.46;72.46
49342;BME280;35210;41.606;-87.602;2022-12-18T02:26:21;99254.75;;;-2.35;72.15
49342;BME280;35210;41.606;-87.602;2022-12-18T02:28:58;99257.16;;;-2.29;71.57
49342;BME280;35210;41.606;-87.602;2022-12-18T02:31:36;99264.22;;;-2.36;70.89
49342;BME280;35210;41.606;-87.602;2022-12-18T02:34:07;99264.47;;;-2.45;71.95
49342;BME280;35210;41.606;-87.602;2022-12-18T02:36:39;99261.84;;;-2.43;72.80
49342;BME280;35210;41.606;-87.602;2022-12-18T02:39:11;99267.84;;;-2.41;73.21
49342;BME280;35210;41.606;-87.602;2022-12-18T02:41:41;99266.09;;;-2.41;73.06
49342;BME280;35210;41.606;-87.602;2022-12-18T02:44:11;99260.06;;;-2.41;72.92
49342;BME280;35210;41.606;-87.602;2022-12-18T02:46:42;99261.81;;;-2.42;72.35
49342;BME280;35210;41.606;-87.602;2022-12-18T02:49:21;99265.16;;;-2.38;72.46
49342;BME280;35210;41.606;-87.602;2022-12-18T02:51:55;99263.22;;;-2.30;72.30
49342;BME280;35210;41.606;-87.602;2022-12-18T02:54:41;99264.03;;;-2.28;72.12
49342;BME280;35210;41.606;-87.602;2022-12-18T02:57:21;99256.72;;;-2.15;71.91
49342;BME280;35210;41.606;-87.602;2022-12-18T02:59:58;99261.78;;;-2.40;71.67
49342;BME280;35210;41.606;-87.602;2022-12-18T03:02:31;99266.53;;;-2.25;71.55
49342;BME280;35210;41.606;-87.602;2022-12-18T03:05:11;99267.53;;;-2.30;71.27
49342;BME280;35210;41.606;-87.602;2022-12-18T03:07:46;99259.66;;;-2.26;70.75
49342;BME280;35210;41.606;-87.602;2022-12-18T03:10:21;99260.59;;;-2.28;70.62
49342;BME280;35210;41.606;-87.602;2022-12-18T03:12:58;99257.25;;;-2.32;69.18
49342;BME280;35210;41.606;-87.602;2022-12-18T03:15:30;99274.88;;;-2.46;69.48
49342;BME280;35210;41.606;-87.602;2022-12-18T03:18:03;99272.91;;;-2.71;68.70
49342;BME280;35210;41.606;-87.602;2022-12-18T03:20:34;99278.31;;;-2.80;68.14
49342;BME280;35210;41.606;-87.602;2022-12-18T03:23:09;99275.97;;;-2.89;68.39
49342;BME280;35210;41.606;-87.602;2022-12-18T03:25:42;99288.88;;;-2.89;69.11
49342;BME280;35210;41.606;-87.602;2022-12-18T03:28:19;99290.59;;;-2.88;67.97
49342;BME280;35210;41.606;-87.602;2022-12-18T03:30:55;99291.50;;;-2.90;67.19
49342;BME280;35210;41.606;-87.602;2022-12-18T03:33:28;99288.19;;;-2.95;67.05
49342;BME280;35210;41.606;-87.602;2022-12-18T03:36:01;99291.72;;;-2.98;66.40
49342;BME280;35210;41.606;-87.602;2022-12-18T03:38:30;99290.22;;;-3.07;66.07
49342;BME280;35210;41.606;-87.602;2022-12-18T03:41:03;99299.69;;;-3.07;66.60
49342;BME280;35210;41.606;-87.602;2022-12-18T03:43:49;99293.72;;;-3.09;66.62
49342;BME280;35210;41.606;-87.602;2022-12-18T03:46:27;99294.63;;;-3.10;66.15
49342;BME280;35210;41.606;-87.602;2022-12-18T03:49:01;99298.06;;;-3.11;66.82
49342;BME280;35210;41.606;-87.602;2022-12-18T03:51:39;99298.94;;;-3.11;66.87
49342;BME280;35210;41.606;-87.602;2022-12-18T03:54:11;99300.88;;;-3.20;66.77
49342;BME280;35210;41.606;-87.602;2022-12-18T03:56:46;99296.31;;;-3.09;66.87
49342;BME280;35210;41.606;-87.602;2022-12-18T03:59:19;99297.38;;;-3.18;67.29
49342;BME280;35210;41.606;-87.602;2022-12-18T04:01:51;99306.94;;;-3.21;68.28
49342;BME280;35210;41.606;-87.602;2022-12-18T04:04:23;99312.91;;;-3.19;68.32
49342;BME280;35210;41.606;-87.602;2022-12-18T04:06:53;99309.81;;;-3.35;68.73
49342;BME280;35210;41.606;-87.602;2022-12-18T04:09:23;99312.34;;;-3.32;69.09
49342;BME280;35210;41.606;-87.602;2022-12-18T04:11:52;99311.41;;;-3.29;69.43
49342;BME280;35210;41.606;-87.602;2022-12-18T04:14:30;99313.94;;;-3.26;69.87
49342;BME280;35210;41.606;-87.602;2022-12-18T04:17:02;99305.13;;;-3.18;70.21
49342;BME280;35210;41.606;-87.602;2022-12-18T04:19:31;99311.94;;;-3.15;69.79
49342;BME280;35210;41.606;-87.602;2022-12-18T04:21:59;99320.50;;;-3.13;69.28
49342;BME280;35210;41.606;-87.602;2022-12-18T04:24:29;99327.44;;;-3.15;68.57
49342;BME280;35210;41.606;-87.602;2022-12-18T04:26:57;99329.81;;;-3.06;68.82
49342;BME280;35210;41.606;-87.602;2022-12-18T04:29:25;99328.22;;;-3.12;68.04
49342;BME280;35210;41.606;-87.602;2022-12-18T04:31:56;99325.00;;;-3.21;67.14
49342;BME280;35210;41.606;-87.602;2022-12-18T04:34:25;99339.41;;;-3.11;67.68
49342;BME280;35210;41.606;-87.602;2022-12-18T04:36:54;99339.47;;;-3.14;68.48
49342;BME280;35210;41.606;-87.602;2022-12-18T04:39:23;99339.47;;;-3.14;67.24
49342;BME280;35210;41.606;-87.602;2022-12-18T04:41:52;99335.84;;;-3.06;67.01
49342;BME280;35210;41.606;-87.602;2022-12-18T04:44:20;99334.31;;;-3.14;67.34
49342;BME280;35210;41.606;-87.602;2022-12-18T04:46:49;99343.78;;;-3.15;67.93
49342;BME280;35210;41.606;-87.602;2022-12-18T04:49:20;99346.19;;;-3.07;68.34
49342;BME280;35210;41.606;-87.602;2022-12-18T04:51:49;99346.09;;;-3.03;68.07
49342;BME280;35210;41.606;-87.602;2022-12-18T04:54:18;99354.03;;;-3.10;67.07
49342;BME280;35210;41.606;-87.602;2022-12-18T04:56:47;99355.84;;;-3.15;67.08
49342;BME280;35210;41.606;-87.602;2022-12-18T04:59:16;99352.59;;;-3.23;67.71
49342;BME280;35210;41.606;-87.602;2022-12-18T05:01:45;99357.63;;;-3.17;67.50
49342;BME280;35210;41.606;-87.602;2022-12-18T05:04:13;99354.97;;;-3.14;67.47
49342;BME280;35210;41.606;-87.602;2022-12-18T05:06:44;99353.28;;;-3.15;67.26
49342;BME280;35210;41.606;-87.602;2022-12-18T05:09:14;99358.38;;;-3.12;67.52
49342;BME280;35210;41.606;-87.602;2022-12-18T05:11:43;99357.38;;;-3.07;67.95
49342;BME280;35210;41.606;-87.602;2022-12-18T05:14:13;99366.22;;;-3.17;67.20
49342;BME280;35210;41.606;-87.602;2022-12-18T05:16:41;99370.56;;;-3.19;68.17
49342;BME280;35210;41.606;-87.602;2022-12-18T05:19:10;99375.69;;;-3.17;67.59
49342;BME280;35210;41.606;-87.602;2022-12-18T05:21:38;99375.69;;;-3.17;67.58
49342;BME280;35210;41.606;-87.602;2022-12-18T05:24:12;99371.38;;;-3.17;67.41
49342;BME280;35210;41.606;-87.602;2022-12-18T05:26:41;99373.06;;;-3.14;67.97
49342;BME280;35210;41.606;-87.602;2022-12-18T05:29:09;99368.63;;;-3.09;67.38
49342;BME280;35210;41.606;-87.602;2022-12-18T05:31:38;99378.00;;;-3.05;68.08
49342;BME280;35210;41.606;-87.602;2022-12-18T05:34:08;99384.97;;;-3.09;67.64
49342;BME280;35210;41.606;-87.602;2022-12-18T05:36:38;99376.53;;;-3.15;67.57
49342;BME280;35210;41.606;-87.602;2022-12-18T05:39:07;99375.69;;;-3.17;67.18
49342;BME280;35210;41.606;-87.602;2022-12-18T05:41:40;99368.19;;;-3.28;67.28
49342;BME280;35210;41.606;-87.602;2022-12-18T05:44:09;99371.84;;;-3.38;67.10
49342;BME280;35210;41.606;-87.602;2022-12-18T05:46:38;99367.47;;;-3.35;67.41
49342;BME280;35210;41.606;-87.602;2022-12-18T05:49:06;99374.34;;;-3.34;67.82
49342;BME280;35210;41.606;-87.602;2022-12-18T05:51:35;99376.19;;;-3.40;67.86
49342;BME280;35210;41.606;-87.602;2022-12-18T05:54:06;99380.09;;;-3.61;68.07
49342;BME280;35210;41.606;-87.602;2022-12-18T05:56:35;99374.09;;;-3.63;69.24
49342;BME280;35210;41.606;-87.602;2022-12-18T05:59:04;99377.41;;;-3.56;68.99
49342;BME280;35210;41.606;-87.602;2022-12-18T06:01:33;99378.31;;;-3.59;68.92
49342;BME280;35210;41.606;-87.602;2022-12-18T06:04:01;99376.69;;;-3.63;68.42
49342;BME280;35210;41.606;-87.602;2022-12-18T06:06:30;99378.38;;;-3.62;69.54
49342;BME280;35210;41.606;-87.602;2022-12-18T06:08:58;99377.47;;;-3.59;69.73
49342;BME280;35210;41.606;-87.602;2022-12-18T06:11:29;99372.19;;;-3.53;69.22
49342;BME280;35210;41.606;-87.602;2022-12-18T06:13:59;99377.25;;;-3.49;69.46
49342;BME280;35210;41.606;-87.602;2022-12-18T06:16:28;99382.38;;;-3.47;69.11
49342;BME280;35210;41.606;-87.602;2022-12-18T06:18:57;99380.56;;;-3.42;68.14
49342;BME280;35210;41.606;-87.602;2022-12-18T06:21:29;99377.22;;;-3.47;68.61
49342;BME280;35210;41.606;-87.602;2022-12-18T06:23:57;99379.72;;;-3.44;69.01
49342;BME280;35210;41.606;-87.602;2022-12-18T06:26:26;99379.75;;;-3.46;68.49
49342;BME280;35210;41.606;-87.602;2022-12-18T06:28:58;99382.28;;;-3.43;68.88
49342;BME280;35210;41.606;-87.602;2022-12-18T06:31:27;99386.44;;;-3.36;70.00
49342;BME280;35210;41.606;-87.602;2022-12-18T06:33:55;99395.97;;;-3.39;68.60
49342;BME280;35210;41.606;-87.602;2022-12-18T06:36:24;99392.44;;;-3.35;69.28
49342;BME280;35210;41.606;-87.602;2022-12-18T06:38:52;99401.41;;;-3.53;69.57
49342;BME280;35210;41.606;-87.602;2022-12-18T06:41:22;99402.38;;;-3.57;69.64
49342;BME280;35210;41.606;-87.602;2022-12-18T06:43:52;99399.84;;;-3.60;70.93
49342;BME280;35210;41.606;-87.602;2022-12-18T06:46:29;99399.72;;;-3.54;70.97
49342;BME280;35210;41.606;-87.602;2022-12-18T06:48:59;99404.91;;;-3.55;70.13
49342;BME280;35210;41.606;-87.602;2022-12-18T06:51:27;99399.72;;;-3.54;70.68
49342;BME280;35210;41.606;-87.602;2022-12-18T06:53:56;99403.25;;;-3.58;70.82
49342;BME280;35210;41.606;-87.602;2022-12-18T06:56:24;99405.69;;;-3.52;70.27
49342;BME280;35210;41.606;-87.602;2022-12-18T06:58:54;99413.53;;;-3.56;70.22
49342;BME280;35210;41.606;-87.602;2022-12-18T07:01:23;99414.44;;;-3.59;70.15
49342;BME280;35210;41.606;-87.602;2022-12-18T07:03:56;99417.84;;;-3.57;69.52
49342;BME280;35210;41.606;-87.602;2022-12-18T07:06:26;99423.25;;;-3.69;69.53
49342;BME280;35210;41.606;-87.602;2022-12-18T07:08:55;99423.28;;;-3.71;69.02
49342;BME280;35210;41.606;-87.602;2022-12-18T07:11:24;99434.47;;;-3.70;69.22
49342;BME280;35210;41.606;-87.602;2022-12-18T07:13:52;99436.34;;;-3.77;68.75
49342;BME280;35210;41.606;-87.602;2022-12-18T07:16:23;99445.84;;;-3.79;69.79
49342;BME280;35210;41.606;-87.602;2022-12-18T07:18:52;99442.53;;;-3.85;68.84
49342;BME280;35210;41.606;-87.602;2022-12-18T07:21:24;99442.69;;;-3.94;69.12
49342;BME280;35210;41.606;-87.602;2022-12-18T07:23:55;99451.41;;;-4.02;69.39
49342;BME280;35210;41.606;-87.602;2022-12-18T07:26:23;99445.47;;;-4.05;69.69
49342;BME280;35210;41.606;-87.602;2022-12-18T07:28:55;99454.81;;;-4.00;69.40
49342;BME280;35210;41.606;-87.602;2022-12-18T07:31:26;99450.47;;;-3.98;69.19
49342;BME280;35210;41.606;-87.602;2022-12-18T07:33:54;99451.28;;;-3.94;69.67
49342;BME280;35210;41.606;-87.602;2022-12-18T07:36:23;99453.31;;;-4.13;70.12
49342;BME280;35210;41.606;-87.602;2022-12-18T07:38:51;99446.69;;;-4.26;69.34
49342;BME280;35210;41.606;-87.602;2022-12-18T07:41:20;99463.09;;;-4.32;70.54
49342;BME280;35210;41.606;-87.602;2022-12-18T07:43:48;99465.66;;;-4.30;69.83
49342;BME280;35210;41.606;-87.602;2022-12-18T07:46:17;99476.97;;;-4.39;70.53
49342;BME280;35210;41.606;-87.602;2022-12-18T07:48:47;99476.06;;;-4.36;70.67
49342;BME280;35210;41.606;-87.602;2022-12-18T07:51:15;99489.63;;;-4.25;70.27
49342;BME280;35210;41.606;-87.602;2022-12-18T07:53:44;99491.34;;;-4.25;69.60
49342;BME280;35210;41.606;-87.602;2022-12-18T07:56:12;99497.28;;;-4.20;69.42
49342;BME280;35210;41.606;-87.602;2022-12-18T07:58:41;99500.84;;;-4.27;69.40
49342;BME280;35210;41.606;-87.602;2022-12-18T08:01:11;99507.63;;;-4.22;68.58
49342;BME280;35210;41.606;-87.602;2022-12-18T08:03:40;99503.44;;;-4.29;69.33
49342;BME280;35210;41.606;-87.602;2022-12-18T08:06:10;99504.16;;;-4.19;69.35
49342;BME280;35210;41.606;-87.602;2022-12-18T08:08:39;99511.81;;;-4.15;68.88
49342;BME280;35210;41.606;-87.602;2022-12-18T08:11:08;99514.50;;;-4.21;69.67
49342;BME280;35210;41.606;-87.602;2022-12-18T08:13:37;99510.25;;;-4.25;68.59
49342;BME280;35210;41.606;-87.602;2022-12-18T08:16:07;99520.72;;;-4.34;68.79
49342;BME280;35210;41.606;-87.602;2022-12-18T08:18:38;99514.69;;;-4.33;68.44
49342;BME280;35210;41.606;-87.602;2022-12-18T08:21:11;99526.81;;;-4.40;68.66
49342;BME280;35210;41.606;-87.602;2022-12-18T08:23:41;99534.44;;;-4.32;68.68
49342;BME280;35210;41.606;-87.602;2022-12-18T08:26:11;99539.66;;;-4.37;68.53
49342;BME280;35210;41.606;-87.602;2022-12-18T08:28:41;99540.28;;;-4.22;68.50
49342;BME280;35210;41.606;-87.602;2022-12-18T08:31:10;99547.25;;;-4.27;67.90
49342;BME280;35210;41.606;-87.602;2022-12-18T08:33:41;99547.16;;;-4.21;68.03
49342;BME280;35210;41.606;-87.602;2022-12-18T08:36:12;99544.75;;;-4.32;67.35
49342;BME280;35210;41.606;-87.602;2022-12-18T08:38:41;99549.97;;;-4.37;67.35
49342;BME280;35210;41.606;-87.602;2022-12-18T08:41:12;99551.72;;;-4.40;67.56
49342;BME280;35210;41.606;-87.602;2022-12-18T08:43:41;99552.84;;;-4.56;67.79
49342;BME280;35210;41.606;-87.602;2022-12-18T08:46:31;99558.03;;;-4.58;68.51
49342;BME280;35210;41.606;-87.602;2022-12-18T08:49:00;99557.16;;;-4.57;67.97
49342;BME280;35210;41.606;-87.602;2022-12-18T08:51:31;99564.00;;;-4.54;68.48
49342;BME280;35210;41.606;-87.602;2022-12-18T08:54:01;99562.25;;;-4.52;68.96
49342;BME280;35210;41.606;-87.602;2022-12-18T08:56:31;99562.97;;;-4.44;68.25
49342;BME280;35210;41.606;-87.602;2022-12-18T08:58:59;99559.50;;;-4.43;68.14
49342;BME280;35210;41.606;-87.602;2022-12-18T09:01:28;99557.00;;;-4.46;67.89
49342;BME280;35210;41.606;-87.602;2022-12-18T09:03:57;99555.13;;;-4.38;67.81
49342;BME280;35210;41.606;-87.602;2022-12-18T09:06:26;99566.22;;;-4.33;67.57
49342;BME280;35210;41.606;-87.602;2022-12-18T09:08:57;99557.75;;;-4.40;67.97
49342;BME280;35210;41.606;-87.602;2022-12-18T09:11:28;99565.69;;;-4.52;67.65
49342;BME280;35210;41.606;-87.602;2022-12-18T09:13:57;99564.78;;;-4.49;68.95
49342;BME280;35210;41.606;-87.602;2022-12-18T09:16:28;99566.56;;;-4.53;68.40
49342;BME280;35210;41.606;-87.602;2022-12-18T09:18:57;99566.56;;;-4.53;68.42
49342;BME280;35210;41.606;-87.602;2022-12-18T09:21:30;99575.34;;;-4.68;68.42
49342;BME280;35210;41.606;-87.602;2022-12-18T09:24:00;99564.28;;;-4.76;68.84
49342;BME280;35210;41.606;-87.602;2022-12-18T09:26:28;99574.47;;;-4.67;69.02
49342;BME280;35210;41.606;-87.602;2022-12-18T09:28:58;99581.34;;;-4.67;68.60
49342;BME280;35210;41.606;-87.602;2022-12-18T09:31:27;99589.94;;;-4.67;69.06
49342;BME280;35210;41.606;-87.602;2022-12-18T09:33:56;99579.59;;;-4.64;69.38
49342;BME280;35210;41.606;-87.602;2022-12-18T09:36:25;99586.41;;;-4.59;69.35
49342;BME280;35210;41.606;-87.602;2022-12-18T09:38:54;99588.94;;;-4.56;68.87
49342;BME280;35210;41.606;-87.602;2022-12-18T09:41:39;99591.59;;;-4.63;69.30
49342;BME280;35210;41.606;-87.602;2022-12-18T09:44:16;99594.97;;;-4.57;69.96
49342;BME280;35210;41.606;-87.602;2022-12-18T09:46:48;99596.75;;;-4.63;68.58
49342;BME280;35210;41.606;-87.602;2022-12-18T09:49:23;99599.41;;;-4.69;68.11
49342;BME280;35210;41.606;-87.602;2022-12-18T09:51:57;99621.72;;;-4.68;68.56
49342;BME280;35210;41.606;-87.602;2022-12-18T09:54:33;99618.28;;;-4.68;67.65
49342;BME280;35210;41.606;-87.602;2022-12-18T09:57:04;99615.75;;;-4.71;67.94
49342;BME280;35210;41.606;-87.602;2022-12-18T09:59:36;99616.63;;;-4.74;68.00
49342;BME280;35210;41.606;-87.602;2022-12-18T10:02:15;99615.09;;;-4.88;67.81
49342;BME280;35210;41.606;-87.602;2022-12-18T10:04:50;99621.06;;;-4.85;67.94
49342;BME280;35210;41.606;-87.602;2022-12-18T10:07:28;99615.09;;;-4.88;68.34
49342;BME280;35210;41.606;-87.602;2022-12-18T10:10:06;99620.19;;;-4.82;68.28
49342;BME280;35210;41.606;-87.602;2022-12-18T10:12:43;99625.31;;;-4.81;69.32
49342;BME280;35210;41.606;-87.602;2022-12-18T10:15:19;99618.69;;;-5.03;68.76
49342;BME280;35210;41.606;-87.602;2022-12-18T10:17:53;99623.81;;;-5.00;68.26
49342;BME280;35210;41.606;-87.602;2022-12-18T10:20:32;99632.34;;;-4.95;68.93
49342;BME280;35210;41.606;-87.602;2022-12-18T10:23:07;99620.44;;;-5.04;68.75
49342;BME280;35210;41.606;-87.602;2022-12-18T10:25:49;99631.47;;;-4.94;69.00
49342;BME280;35210;41.606;-87.602;2022-12-18T10:28:20;99638.28;;;-4.90;69.23
49342;BME280;35210;41.606;-87.602;2022-12-18T10:30:50;99646.84;;;-4.88;67.83
49342;BME280;35210;41.606;-87.602;2022-12-18T10:33:21;99645.28;;;-5.00;67.63
49342;BME280;35210;41.606;-87.602;2022-12-18T10:35:54;99651.13;;;-4.87;67.94
49342;BME280;35210;41.606;-87.602;2022-12-18T10:38:24;99659.81;;;-4.94;67.54
49342;BME280;35210;41.606;-87.602;2022-12-18T10:40:55;99660.63;;;-4.92;67.87
49342;BME280;35210;41.606;-87.602;2022-12-18T10:43:28;99665.69;;;-4.83;68.15
49342;BME280;35210;41.606;-87.602;2022-12-18T10:46:12;99667.38;;;-4.79;68.00
49342;BME280;35210;41.606;-87.602;2022-12-18T10:48:52;99666.53;;;-4.81;68.13
49342;BME280;35210;41.606;-87.602;2022-12-18T10:51:23;99671.69;;;-4.81;68.43
49342;BME280;35210;41.606;-87.602;2022-12-18T10:53:54;99674.25;;;-4.81;68.25
49342;BME280;35210;41.606;-87.602;2022-12-18T10:56:26;99677.63;;;-4.76;67.86
49342;BME280;35210;41.606;-87.602;2022-12-18T10:59:01;99678.50;;;-4.75;68.41
49342;BME280;35210;41.606;-87.602;2022-12-18T11:01:46;99679.41;;;-4.81;68.53
49342;BME280;35210;41.606;-87.602;2022-12-18T11:04:18;99682.03;;;-4.87;67.89
49342;BME280;35210;41.606;-87.602;2022-12-18T11:06:55;99685.66;;;-5.03;67.87
49342;BME280;35210;41.606;-87.602;2022-12-18T11:09:26;99689.09;;;-5.06;68.94
49342;BME280;35210;41.606;-87.602;2022-12-18T11:11:56;99702.13;;;-5.19;69.89
49342;BME280;35210;41.606;-87.602;2022-12-18T11:14:29;99703.09;;;-5.31;69.05
49342;BME280;35210;41.606;-87.602;2022-12-18T11:16:59;99698.94;;;-5.46;69.36
49342;BME280;35210;41.606;-87.602;2022-12-18T11:19:33;99697.16;;;-5.39;69.99
49342;BME280;35210;41.606;-87.602;2022-12-18T11:22:19;99695.50;;;-5.45;71.13
49342;BME280;35210;41.606;-87.602;2022-12-18T11:24:54;99696.28;;;-5.35;69.46
49342;BME280;35210;41.606;-87.602;2022-12-18T11:27:23;99703.28;;;-5.51;70.68
49342;BME280;35210;41.606;-87.602;2022-12-18T11:30:06;99704.13;;;-5.49;70.00
49342;BME280;35210;41.606;-87.602;2022-12-18T11:32:36;99715.25;;;-5.47;70.47
49342;BME280;35210;41.606;-87.602;2022-12-18T11:35:15;99710.88;;;-5.39;69.76
49342;BME280;35210;41.606;-87.602;2022-12-18T11:37:49;99718.66;;;-5.46;70.43
49342;BME280;35210;41.606;-87.602;2022-12-18T11:40:24;99723.78;;;-5.42;70.69
49342;BME280;35210;41.606;-87.602;2022-12-18T11:43:01;99723.72;;;-5.36;70.78
49342;BME280;35210;41.606;-87.602;2022-12-18T11:45:34;99735.72;;;-5.32;69.86
49342;BME280;35210;41.606;-87.602;2022-12-18T11:48:05;99735.69;;;-5.28;70.53
49342;BME280;35210;41.606;-87.602;2022-12-18T11:50:45;99748.56;;;-5.28;69.14
49342;BME280;35210;41.606;-87.602;2022-12-18T11:53:14;99741.72;;;-5.33;68.85
49342;BME280;35210;41.606;-87.602;2022-12-18T11:55:53;99749.47;;;-5.37;69.95
49342;BME280;35210;41.606;-87.602;2022-12-18T11:58:46;99746.97;;;-5.45;70.32
49342;BME280;35210;41.606;-87.602;2022-12-18T12:01:38;99752.94;;;-5.43;69.70
49342;BME280;35210;41.606;-87.602;2022-12-18T12:04:22;99747.75;;;-5.37;70.20
49342;BME280;35210;41.606;-87.602;2022-12-18T12:07:02;99750.53;;;-5.64;70.25
49342;BME280;35210;41.606;-87.602;2022-12-18T12:09:40;99744.59;;;-5.75;70.83
49342;BME280;35210;41.606;-87.602;2022-12-18T12:12:27;99756.59;;;-5.74;71.21
49342;BME280;35210;41.606;-87.602;2022-12-18T12:15:20;99766.88;;;-5.73;72.43
49342;BME280;35210;41.606;-87.602;2022-12-18T12:17:57;99759.97;;;-5.65;70.96
49342;BME280;35210;41.606;-87.602;2022-12-18T12:20:42;99757.34;;;-5.57;70.98
49342;BME280;35210;41.606;-87.602;2022-12-18T12:23:22;99761.69;;;-5.67;71.39
49342;BME280;35210;41.606;-87.602;2022-12-18T12:25:54;99763.38;;;-5.63;70.97
49342;BME280;35210;41.606;-87.602;2022-12-18T12:28:39;99765.09;;;-5.62;70.76
49342;BME280;35210;41.606;-87.602;2022-12-18T12:31:16;99767.63;;;-5.54;71.10
49342;BME280;35210;41.606;-87.602;2022-12-18T12:34:00;99773.66;;;-5.63;69.52
49342;BME280;35210;41.606;-87.602;2022-12-18T12:36:41;99769.41;;;-5.65;69.91
49342;BME280;35210;41.606;-87.602;2022-12-18T12:39:19;99783.16;;;-5.71;69.26
49342;BME280;35210;41.606;-87.602;2022-12-18T12:41:49;99786.53;;;-5.64;69.92
49342;BME280;35210;41.606;-87.602;2022-12-18T12:44:42;99791.69;;;-5.63;69.28
49342;BME280;35210;41.606;-87.602;2022-12-18T12:47:15;99793.38;;;-5.60;68.93
49342;BME280;35210;41.606;-87.602;2022-12-18T12:49:47;99795.13;;;-5.65;68.80
49342;BME280;35210;41.606;-87.602;2022-12-18T12:52:18;99799.59;;;-5.91;68.44
49342;BME280;35210;41.606;-87.602;2022-12-18T12:54:52;99799.47;;;-5.76;69.27
49342;BME280;35210;41.606;-87.602;2022-12-18T12:57:23;99803.72;;;-5.66;69.13
49342;BME280;35210;41.606;-87.602;2022-12-18T13:00:02;99809.75;;;-5.75;69.16
49342;BME280;35210;41.606;-87.602;2022-12-18T13:02:37;99812.34;;;-5.79;68.45
49342;BME280;35210;41.606;-87.602;2022-12-18T13:05:16;99820.09;;;-5.87;68.66
49342;BME280;35210;41.606;-87.602;2022-12-18T13:07:51;99815.84;;;-5.89;69.14